sensor_id;sensor_type;location;lat;lon;timestamp;temperature;humidity
19552;DHT22;9921;47.186;9.778;2023-09-30T00:01:43;20.90;99.90
19552;DHT22;9921;47.186;9.778;2023-09-30T00:04:10;20.80;99.90
19552;DHT22;9921;47.186;9.778;2023-09-30T00:06:37;20.80;99.90
19552;DHT22;9921;47.186;9.778;2023-09-30T00:09:05;20.80;99.90
19552;DHT22;9921;47.186;9.778;2023-09-30T00:11:32;20.80;99.90
19552;DHT22;9921;47.186;9.778;2023-09-30T00:14:02;20.70;99.90
19552;DHT22;9921;47.186;9.778;2023-09-30T00:16:30;20.70;99.90
19552;DHT22;9921;47.186;9.778;2023-09-30T00:18:57;20.70;99.90
19552;DHT22;9921;47.186;9.778;2023-09-30T00:21:24;20.70;99.90
19552;DHT22;9921;47.186;9.778;2023-09-30T00:23:50;20.70;99.90
19552;DHT22;9921;47.186;9.778;2023-09-30T00:26:19;20.70;99.90
19552;DHT22;9921;47.186;9.778;2023-09-30T00:28:46;20.70;99.90
19552;DHT22;9921;47.186;9.778;2023-09-30T00:31:13;20.70;99.90
19552;DHT22;9921;47.186;9.778;2023-09-30T00:33:40;20.70;99.90
19552;DHT22;9921;47.186;9.778;2023-09-30T00:36:08;20.70;99.90
19552;DHT22;9921;47.186;9.778;2023-09-30T00:38:35;20.70;99.90
19552;DHT22;9921;47.186;9.778;2023-09-30T00:41:02;20.70;99.90
19552;DHT22;9921;47.186;9.778;2023-09-30T00:43:30;20.70;99.90
19552;DHT22;9921;47.186;9.778;2023-09-30T00:46:02;20.60;99.90
19552;DHT22;9921;47.186;9.778;2023-09-30T00:48:32;20.60;99.90
19552;DHT22;9921;47.186;9.778;2023-09-30T00:50:59;20.60;99.90
19552;DHT22;9921;47.186;9.778;2023-09-30T00:53:26;20.60;99.90
19552;DHT22;9921;47.186;9.778;2023-09-30T00:55:54;20.60;99.90
19552;DHT22;9921;47.186;9.778;2023-09-30T00:58:22;20.70;99.90
19552;DHT22;9921;47.186;9.778;2023-09-30T01:00:53;20.60;99.90
19552;DHT22;9921;47.186;9.778;2023-09-30T01:03:20;20.70;99.90
19552;DHT22;9921;47.186;9.778;2023-09-30T01:05:47;20.70;99.90
19552;DHT22;9921;47.186;9.778;2023-09-30T01:08:15;20.70;99.90
19552;DHT22;9921;47.186;9.778;2023-09-30T01:10:43;20.70;99.90
19552;DHT22;9921;47.186;9.778;2023-09-30T01:13:10;20.70;99.90
19552;DHT22;9921;47.186;9.778;2023-09-30T01:15:36;20.70;99.90
19552;DHT22;9921;47.186;9.778;2023-09-30T01:18:05;20.70;99.90
19552;DHT22;9921;47.186;9.778;2023-09-30T01:20:32;20.70;99.90
19552;DHT22;9921;47.186;9.778;2023-09-30T01:23:01;20.60;99.90
19552;DHT22;9921;47.186;9.778;2023-09-30T01:25:29;20.60;99.90
19552;DHT22;9921;47.186;9.778;2023-09-30T01:27:57;20.50;99.90
19552;DHT22;9921;47.186;9.778;2023-09-30T01:30:25;20.40;99.90
19552;DHT22;9921;47.186;9.778;2023-09-30T01:32:52;20.40;99.90
19552;DHT22;9921;47.186;9.778;2023-09-30T01:35:19;20.40;99.90
19552;DHT22;9921;47.186;9.778;2023-09-30T01:37:47;20.40;99.90
19552;DHT22;9921;47.186;9.778;2023-09-30T01:40:16;20.40;99.90
19552;DHT22;9921;47.186;9.778;2023-09-30T01:42:43;20.40;99.90
19552;DHT22;9921;47.186;9.778;2023-09-30T01:45:10;20.40;99.90
19552;DHT22;9921;47.186;9.778;2023-09-30T01:47:37;20.40;99.90
19552;DHT22;9921;47.186;9.778;2023-09-30T01:50:05;20.40;99.90
19552;DHT22;9921;47.186;9.778;2023-09-30T01:52:32;20.40;99.90
19552;DHT22;9921;47.186;9.778;2023-09-30T01:54:59;20.40;99.90
19552;DHT22;9921;47.186;9.778;2023-09-30T01:57:27;20.40;99.90
19552;DHT22;9921;47.186;9.778;2023-09-30T01:59:54;20.40;99.90
19552;DHT22;9921;47.186;9.778;2023-09-30T02:02:20;20.40;99.90
19552;DHT22;9921;47.186;9.778;2023-09-30T02:04:47;20.40;99.90
19552;DHT22;9921;47.186;9.778;2023-09-30T02:07:14;20.40;99.90
19552;DHT22;9921;47.186;9.778;2023-09-30T02:09:41;20.30;99.90
19552;DHT22;9921;47.186;9.778;2023-09-30T02:12:09;20.30;99.90
19552;DHT22;9921;47.186;9.778;2023-09-30T02:14:38;20.20;99.90
19552;DHT22;9921;47.186;9.778;2023-09-30T02:17:05;20.20;99.90
19552;DHT22;9921;47.186;9.778;2023-09-30T02:19:32;20.10;99.90
19552;DHT22;9921;47.186;9.778;2023-09-30T02:21:59;20.10;99.90
19552;DHT22;9921;47.186;9.778;2023-09-30T02:24:26;20.10;99.90
19552;DHT22;9921;47.186;9.778;2023-09-30T02:26:53;20.10;99.90
19552;DHT22;9921;47.186;9.778;2023-09-30T02:29:19;20.00;99.90
19552;DHT22;9921;47.186;9.778;2023-09-30T02:31:48;19.90;99.90
19552;DHT22;9921;47.186;9.778;2023-09-30T02:34:15;19.90;99.90
19552;DHT22;9921;47.186;9.778;2023-09-30T02:36:42;19.80;99.90
19552;DHT22;9921;47.186;9.778;2023-09-30T02:39:09;19.80;99.90
19552;DHT22;9921;47.186;9.778;2023-09-30T02:41:36;19.80;99.90
19552;DHT22;9921;47.186;9.778;2023-09-30T02:44:03;19.80;99.90
19552;DHT22;9921;47.186;9.778;2023-09-30T02:46:30;19.80;99.90
19552;DHT22;9921;47.186;9.778;2023-09-30T02:49:01;19.70;99.90
19552;DHT22;9921;47.186;9.778;2023-09-30T02:51:28;19.70;99.90
19552;DHT22;9921;47.186;9.778;2023-09-30T02:53:55;19.70;99.90
19552;DHT22;9921;47.186;9.778;2023-09-30T02:56:22;19.70;99.90
19552;DHT22;9921;47.186;9.778;2023-09-30T02:58:50;19.70;99.90
19552;DHT22;9921;47.186;9.778;2023-09-30T03:01:17;19.70;99.90
19552;DHT22;9921;47.186;9.778;2023-09-30T03:03:44;19.70;99.90
19552;DHT22;9921;47.186;9.778;2023-09-30T03:06:13;19.70;99.90
19552;DHT22;9921;47.186;9.778;2023-09-30T03:08:40;19.70;99.90
19552;DHT22;9921;47.186;9.778;2023-09-30T03:11:07;19.60;99.90
19552;DHT22;9921;47.186;9.778;2023-09-30T03:13:34;19.70;99.90
19552;DHT22;9921;47.186;9.778;2023-09-30T03:16:01;19.70;99.90
19552;DHT22;9921;47.186;9.778;2023-09-30T03:18:28;19.70;99.90
19552;DHT22;9921;47.186;9.778;2023-09-30T03:20:59;19.70;99.90
19552;DHT22;9921;47.186;9.778;2023-09-30T03:23:28;19.70;99.90
19552;DHT22;9921;47.186;9.778;2023-09-30T03:25:56;19.70;99.90
19552;DHT22;9921;47.186;9.778;2023-09-30T03:28:23;19.60;99.90
19552;DHT22;9921;47.186;9.778;2023-09-30T03:30:51;19.60;99.90
19552;DHT22;9921;47.186;9.778;2023-09-30T03:33:18;19.50;99.90
19552;DHT22;9921;47.186;9.778;2023-09-30T03:35:44;19.60;99.90
19552;DHT22;9921;47.186;9.778;2023-09-30T03:38:12;19.50;99.90
19552;DHT22;9921;47.186;9.778;2023-09-30T03:40:41;19.40;99.90
19552;DHT22;9921;47.186;9.778;2023-09-30T03:43:13;19.40;99.90
19552;DHT22;9921;47.186;9.778;2023-09-30T03:45:40;19.40;99.90
19552;DHT22;9921;47.186;9.778;2023-09-30T03:48:07;19.30;99.90
19552;DHT22;9921;47.186;9.778;2023-09-30T03:50:35;19.30;99.90
19552;DHT22;9921;47.186;9.778;2023-09-30T03:53:03;19.30;99.90
19552;DHT22;9921;47.186;9.778;2023-09-30T03:55:33;19.20;99.90
19552;DHT22;9921;47.186;9.778;2023-09-30T03:58:01;19.20;99.90
19552;DHT22;9921;47.186;9.778;2023-09-30T04:00:29;19.20;99.90
19552;DHT22;9921;47.186;9.778;2023-09-30T04:02:56;19.20;99.90
19552;DHT22;9921;47.186;9.778;2023-09-30T04:05:25;19.20;99.90
19552;DHT22;9921;47.186;9.778;2023-09-30T04:07:55;19.20;99.90
19552;DHT22;9921;47.186;9.778;2023-09-30T04:10:22;19.20;99.90
19552;DHT22;9921;47.186;9.778;2023-09-30T04:12:49;19.20;99.90
19552;DHT22;9921;47.186;9.778;2023-09-30T04:15:19;19.10;99.90
19552;DHT22;9921;47.186;9.778;2023-09-30T04:17:45;19.10;99.90
19552;DHT22;9921;47.186;9.778;2023-09-30T04:20:12;19.10;99.90
19552;DHT22;9921;47.186;9.778;2023-09-30T04:22:46;19.10;99.90
19552;DHT22;9921;47.186;9.778;2023-09-30T04:25:14;19.10;99.90
19552;DHT22;9921;47.186;9.778;2023-09-30T04:27:42;19.10;99.90
19552;DHT22;9921;47.186;9.778;2023-09-30T04:30:13;19.10;99.90
19552;DHT22;9921;47.186;9.778;2023-09-30T04:32:42;19.10;99.90
19552;DHT22;9921;47.186;9.778;2023-09-30T04:35:09;19.00;99.90
19552;DHT22;9921;47.186;9.778;2023-09-30T04:37:36;19.00;99.90
19552;DHT22;9921;47.186;9.778;2023-09-30T04:40:05;18.90;99.90
19552;DHT22;9921;47.186;9.778;2023-09-30T04:42:40;18.90;99.90
19552;DHT22;9921;47.186;9.778;2023-09-30T04:45:09;18.90;99.90
19552;DHT22;9921;47.186;9.778;2023-09-30T04:47:36;18.90;99.90
19552;DHT22;9921;47.186;9.778;2023-09-30T04:50:06;18.90;99.90
19552;DHT22;9921;47.186;9.778;2023-09-30T04:52:33;18.80;99.90
19552;DHT22;9921;47.186;9.778;2023-09-30T04:55:00;18.80;99.90
19552;DHT22;9921;47.186;9.778;2023-09-30T04:57:28;18.80;99.90
19552;DHT22;9921;47.186;9.778;2023-09-30T04:59:55;18.80;99.90
19552;DHT22;9921;47.186;9.778;2023-09-30T05:02:23;18.80;99.90
19552;DHT22;9921;47.186;9.778;2023-09-30T05:04:50;18.80;99.90
19552;DHT22;9921;47.186;9.778;2023-09-30T05:07:19;18.80;99.90
19552;DHT22;9921;47.186;9.778;2023-09-30T05:09:47;18.80;99.90
19552;DHT22;9921;47.186;9.778;2023-09-30T05:12:13;18.80;99.90
19552;DHT22;9921;47.186;9.778;2023-09-30T05:14:41;18.80;99.90
19552;DHT22;9921;47.186;9.778;2023-09-30T05:17:08;18.80;99.90
19552;DHT22;9921;47.186;9.778;2023-09-30T05:19:35;18.70;99.90
19552;DHT22;9921;47.186;9.778;2023-09-30T05:22:03;18.70;99.90
19552;DHT22;9921;47.186;9.778;2023-09-30T05:24:32;18.70;99.90
19552;DHT22;9921;47.186;9.778;2023-09-30T05:27:00;18.60;99.90
19552;DHT22;9921;47.186;9.778;2023-09-30T05:29:28;18.60;99.90
19552;DHT22;9921;47.186;9.778;2023-09-30T05:31:54;18.60;99.90
19552;DHT22;9921;47.186;9.778;2023-09-30T05:34:21;18.50;99.90
19552;DHT22;9921;47.186;9.778;2023-09-30T05:36:48;18.50;99.90
19552;DHT22;9921;47.186;9.778;2023-09-30T05:39:17;18.50;99.90
19552;DHT22;9921;47.186;9.778;2023-09-30T05:41:46;18.50;99.90
19552;DHT22;9921;47.186;9.778;2023-09-30T05:44:13;18.50;99.90
19552;DHT22;9921;47.186;9.778;2023-09-30T05:46:40;18.50;99.90
19552;DHT22;9921;47.186;9.778;2023-09-30T05:49:08;18.60;99.90
19552;DHT22;9921;47.186;9.778;2023-09-30T05:51:39;18.60;99.90
19552;DHT22;9921;47.186;9.778;2023-09-30T05:54:06;18.60;99.90
19552;DHT22;9921;47.186;9.778;2023-09-30T05:56:33;18.70;99.90
19552;DHT22;9921;47.186;9.778;2023-09-30T05:59:01;18.70;99.90
19552;DHT22;9921;47.186;9.778;2023-09-30T06:01:28;18.70;99.90
19552;DHT22;9921;47.186;9.778;2023-09-30T06:03:56;18.70;99.90
19552;DHT22;9921;47.186;9.778;2023-09-30T06:06:23;18.70;99.90
19552;DHT22;9921;47.186;9.778;2023-09-30T06:08:51;18.70;99.90
19552;DHT22;9921;47.186;9.778;2023-09-30T06:11:19;18.70;99.90
19552;DHT22;9921;47.186;9.778;2023-09-30T06:13:49;18.70;99.90
19552;DHT22;9921;47.186;9.778;2023-09-30T06:16:17;18.70;99.90
19552;DHT22;9921;47.186;9.778;2023-09-30T06:18:44;18.70;99.90
19552;DHT22;9921;47.186;9.778;2023-09-30T06:21:11;18.70;99.90
19552;DHT22;9921;47.186;9.778;2023-09-30T06:23:40;18.70;99.90
19552;DHT22;9921;47.186;9.778;2023-09-30T06:26:07;18.70;99.90
19552;DHT22;9921;47.186;9.778;2023-09-30T06:28:35;18.70;99.90
19552;DHT22;9921;47.186;9.778;2023-09-30T06:31:06;18.70;99.90
19552;DHT22;9921;47.186;9.778;2023-09-30T06:33:34;18.80;99.90
19552;DHT22;9921;47.186;9.778;2023-09-30T06:36:02;18.80;99.90
19552;DHT22;9921;47.186;9.778;2023-09-30T06:38:28;18.80;99.90
19552;DHT22;9921;47.186;9.778;2023-09-30T06:40:55;18.80;99.90
19552;DHT22;9921;47.186;9.778;2023-09-30T06:43:22;18.80;99.90
19552;DHT22;9921;47.186;9.778;2023-09-30T06:45:49;18.80;99.90
19552;DHT22;9921;47.186;9.778;2023-09-30T06:48:16;18.80;99.90
19552;DHT22;9921;47.186;9.778;2023-09-30T06:50:45;18.80;99.90
19552;DHT22;9921;47.186;9.778;2023-09-30T06:53:13;18.90;99.90
19552;DHT22;9921;47.186;9.778;2023-09-30T06:55:41;18.90;99.90
19552;DHT22;9921;47.186;9.778;2023-09-30T06:58:08;19.00;99.90
19552;DHT22;9921;47.186;9.778;2023-09-30T07:00:36;19.00;99.90
19552;DHT22;9921;47.186;9.778;2023-09-30T07:03:03;19.00;99.90
19552;DHT22;9921;47.186;9.778;2023-09-30T07:05:30;19.00;99.90
19552;DHT22;9921;47.186;9.778;2023-09-30T07:07:59;19.10;99.90
19552;DHT22;9921;47.186;9.778;2023-09-30T07:10:26;19.10;99.90
19552;DHT22;9921;47.186;9.778;2023-09-30T07:12:52;19.20;99.90
19552;DHT22;9921;47.186;9.778;2023-09-30T07:15:19;19.20;99.90
19552;DHT22;9921;47.186;9.778;2023-09-30T07:17:46;19.30;99.90
19552;DHT22;9921;47.186;9.778;2023-09-30T07:20:13;19.40;99.90
19552;DHT22;9921;47.186;9.778;2023-09-30T07:22:40;19.50;99.90
19552;DHT22;9921;47.186;9.778;2023-09-30T07:25:09;19.50;99.90
19552;DHT22;9921;47.186;9.778;2023-09-30T07:27:36;19.40;99.90
19552;DHT22;9921;47.186;9.778;2023-09-30T07:30:04;19.50;99.90
19552;DHT22;9921;47.186;9.778;2023-09-30T07:32:32;19.50;99.90
19552;DHT22;9921;47.186;9.778;2023-09-30T07:34:59;19.50;99.90
19552;DHT22;9921;47.186;9.778;2023-09-30T07:37:25;19.50;99.90
19552;DHT22;9921;47.186;9.778;2023-09-30T07:39:52;19.60;99.90
19552;DHT22;9921;47.186;9.778;2023-09-30T07:42:20;19.60;99.90
19552;DHT22;9921;47.186;9.778;2023-09-30T07:44:48;19.60;99.90
19552;DHT22;9921;47.186;9.778;2023-09-30T07:47:15;19.70;99.90
19552;DHT22;9921;47.186;9.778;2023-09-30T07:49:42;19.70;99.90
19552;DHT22;9921;47.186;9.778;2023-09-30T07:52:09;19.80;99.90
19552;DHT22;9921;47.186;9.778;2023-09-30T07:54:36;19.90;99.90
19552;DHT22;9921;47.186;9.778;2023-09-30T07:57:03;20.00;99.90
19552;DHT22;9921;47.186;9.778;2023-09-30T07:59:31;20.20;99.90
19552;DHT22;9921;47.186;9.778;2023-09-30T08:01:59;20.40;99.90
19552;DHT22;9921;47.186;9.778;2023-09-30T08:04:26;20.70;99.90
19552;DHT22;9921;47.186;9.778;2023-09-30T08:06:52;20.90;99.90
19552;DHT22;9921;47.186;9.778;2023-09-30T08:09:20;21.10;99.90
19552;DHT22;9921;47.186;9.778;2023-09-30T08:11:49;21.20;99.90
19552;DHT22;9921;47.186;9.778;2023-09-30T08:14:16;21.40;99.90
19552;DHT22;9921;47.186;9.778;2023-09-30T08:16:44;21.50;99.90
19552;DHT22;9921;47.186;9.778;2023-09-30T08:19:11;21.70;99.90
19552;DHT22;9921;47.186;9.778;2023-09-30T08:21:38;21.80;99.90
19552;DHT22;9921;47.186;9.778;2023-09-30T08:24:05;21.90;99.90
19552;DHT22;9921;47.186;9.778;2023-09-30T08:26:32;21.90;99.90
19552;DHT22;9921;47.186;9.778;2023-09-30T08:29:01;21.90;99.90
19552;DHT22;9921;47.186;9.778;2023-09-30T08:31:28;21.80;99.90
19552;DHT22;9921;47.186;9.778;2023-09-30T08:33:56;21.70;99.90
19552;DHT22;9921;47.186;9.778;2023-09-30T08:36:23;21.70;99.90
19552;DHT22;9921;47.186;9.778;2023-09-30T08:38:50;21.60;99.90
19552;DHT22;9921;47.186;9.778;2023-09-30T08:41:27;21.50;99.90
19552;DHT22;9921;47.186;9.778;2023-09-30T08:43:56;21.60;99.90
19552;DHT22;9921;47.186;9.778;2023-09-30T08:46:26;21.80;99.90
19552;DHT22;9921;47.186;9.778;2023-09-30T08:49:03;21.90;99.90
19552;DHT22;9921;47.186;9.778;2023-09-30T08:51:30;22.20;99.90
19552;DHT22;9921;47.186;9.778;2023-09-30T08:53:58;22.70;99.90
19552;DHT22;9921;47.186;9.778;2023-09-30T08:56:28;23.60;99.90
19552;DHT22;9921;47.186;9.778;2023-09-30T08:58:57;25.40;99.90
19552;DHT22;9921;47.186;9.778;2023-09-30T09:01:24;27.50;99.90
19552;DHT22;9921;47.186;9.778;2023-09-30T09:03:51;29.40;99.90
19552;DHT22;9921;47.186;9.778;2023-09-30T09:06:20;31.10;99.90
19552;DHT22;9921;47.186;9.778;2023-09-30T09:08:48;32.60;97.40
19552;DHT22;9921;47.186;9.778;2023-09-30T09:11:15;34.00;94.20
19552;DHT22;9921;47.186;9.778;2023-09-30T09:13:46;35.00;90.00
19552;DHT22;9921;47.186;9.778;2023-09-30T09:16:15;36.00;83.60
19552;DHT22;9921;47.186;9.778;2023-09-30T09:18:42;36.90;76.80
19552;DHT22;9921;47.186;9.778;2023-09-30T09:21:10;37.50;71.80
19552;DHT22;9921;47.186;9.778;2023-09-30T09:23:42;38.00;68.10
19552;DHT22;9921;47.186;9.778;2023-09-30T09:26:10;38.30;65.30
19552;DHT22;9921;47.186;9.778;2023-09-30T09:28:37;38.60;64.30
19552;DHT22;9921;47.186;9.778;2023-09-30T09:31:23;39.00;62.70
19552;DHT22;9921;47.186;9.778;2023-09-30T09:33:50;39.30;62.10
19552;DHT22;9921;47.186;9.778;2023-09-30T09:36:17;39.60;59.50
19552;DHT22;9921;47.186;9.778;2023-09-30T09:38:47;39.90;59.10
19552;DHT22;9921;47.186;9.778;2023-09-30T09:41:15;40.10;58.20
19552;DHT22;9921;47.186;9.778;2023-09-30T09:43:43;40.40;57.40
19552;DHT22;9921;47.186;9.778;2023-09-30T09:46:10;40.70;56.70
19552;DHT22;9921;47.186;9.778;2023-09-30T09:48:45;40.90;56.20
19552;DHT22;9921;47.186;9.778;2023-09-30T09:51:13;41.00;54.90
19552;DHT22;9921;47.186;9.778;2023-09-30T09:53:41;41.20;54.10
19552;DHT22;9921;47.186;9.778;2023-09-30T09:56:12;41.30;53.60
19552;DHT22;9921;47.186;9.778;2023-09-30T09:58:40;41.50;53.20
19552;DHT22;9921;47.186;9.778;2023-09-30T10:01:09;41.60;52.80
19552;DHT22;9921;47.186;9.778;2023-09-30T10:03:37;41.70;52.70
19552;DHT22;9921;47.186;9.778;2023-09-30T10:06:05;41.80;51.90
19552;DHT22;9921;47.186;9.778;2023-09-30T10:08:37;41.80;52.00
19552;DHT22;9921;47.186;9.778;2023-09-30T10:11:06;41.70;52.10
19552;DHT22;9921;47.186;9.778;2023-09-30T10:13:53;41.80;51.80
19552;DHT22;9921;47.186;9.778;2023-09-30T10:16:48;42.10;51.70
19552;DHT22;9921;47.186;9.778;2023-09-30T10:19:20;42.40;51.30
19552;DHT22;9921;47.186;9.778;2023-09-30T10:22:24;42.50;50.70
19552;DHT22;9921;47.186;9.778;2023-09-30T10:24:53;42.20;51.00
19552;DHT22;9921;47.186;9.778;2023-09-30T10:27:33;41.90;51.20
19552;DHT22;9921;47.186;9.778;2023-09-30T10:30:11;41.50;50.80
19552;DHT22;9921;47.186;9.778;2023-09-30T10:33:09;41.00;51.60
19552;DHT22;9921;47.186;9.778;2023-09-30T10:35:43;40.80;52.30
19552;DHT22;9921;47.186;9.778;2023-09-30T10:38:38;40.90;51.80
19552;DHT22;9921;47.186;9.778;2023-09-30T10:41:09;40.60;51.10
19552;DHT22;9921;47.186;9.778;2023-09-30T10:43:39;40.50;51.70
19552;DHT22;9921;47.186;9.778;2023-09-30T10:46:31;40.40;51.80
19552;DHT22;9921;47.186;9.778;2023-09-30T10:49:19;40.40;52.10
19552;DHT22;9921;47.186;9.778;2023-09-30T10:51:57;40.40;52.10
19552;DHT22;9921;47.186;9.778;2023-09-30T10:54:26;40.20;51.60
19552;DHT22;9921;47.186;9.778;2023-09-30T10:56:54;40.10;51.90
19552;DHT22;9921;47.186;9.778;2023-09-30T10:59:23;40.20;52.10
19552;DHT22;9921;47.186;9.778;2023-09-30T11:01:52;40.40;51.60
19552;DHT22;9921;47.186;9.778;2023-09-30T11:04:19;40.60;51.50
19552;DHT22;9921;47.186;9.778;2023-09-30T11:06:46;40.80;51.20
19552;DHT22;9921;47.186;9.778;2023-09-30T11:09:16;40.90;51.60
19552;DHT22;9921;47.186;9.778;2023-09-30T11:11:44;40.90;51.00
19552;DHT22;9921;47.186;9.778;2023-09-30T11:14:21;41.00;50.80
19552;DHT22;9921;47.186;9.778;2023-09-30T11:16:51;41.20;50.50
19552;DHT22;9921;47.186;9.778;2023-09-30T11:19:19;41.40;49.70
19552;DHT22;9921;47.186;9.778;2023-09-30T11:21:48;41.40;50.00
19552;DHT22;9921;47.186;9.778;2023-09-30T11:24:15;41.30;49.80
19552;DHT22;9921;47.186;9.778;2023-09-30T11:26:45;41.20;49.90
19552;DHT22;9921;47.186;9.778;2023-09-30T11:29:16;41.30;49.90
19552;DHT22;9921;47.186;9.778;2023-09-30T11:31:51;41.40;49.30
19552;DHT22;9921;47.186;9.778;2023-09-30T11:34:18;41.40;49.40
19552;DHT22;9921;47.186;9.778;2023-09-30T11:36:49;41.50;49.40
19552;DHT22;9921;47.186;9.778;2023-09-30T11:39:21;41.70;49.40
19552;DHT22;9921;47.186;9.778;2023-09-30T11:41:49;41.90;49.00
19552;DHT22;9921;47.186;9.778;2023-09-30T11:44:16;42.20;49.00
19552;DHT22;9921;47.186;9.778;2023-09-30T11:46:52;42.40;49.00
19552;DHT22;9921;47.186;9.778;2023-09-30T11:49:26;42.60;48.90
19552;DHT22;9921;47.186;9.778;2023-09-30T11:51:54;42.70;48.50
19552;DHT22;9921;47.186;9.778;2023-09-30T11:54:21;42.40;47.70
19552;DHT22;9921;47.186;9.778;2023-09-30T11:56:49;42.30;48.40
19552;DHT22;9921;47.186;9.778;2023-09-30T11:59:16;41.90;47.50
19552;DHT22;9921;47.186;9.778;2023-09-30T12:01:45;41.90;48.60
19552;DHT22;9921;47.186;9.778;2023-09-30T12:04:15;41.80;49.40
19552;DHT22;9921;47.186;9.778;2023-09-30T12:06:44;41.80;49.20
19552;DHT22;9921;47.186;9.778;2023-09-30T12:09:12;41.90;48.60
19552;DHT22;9921;47.186;9.778;2023-09-30T12:11:40;41.70;49.30
19552;DHT22;9921;47.186;9.778;2023-09-30T12:14:10;41.80;49.20
19552;DHT22;9921;47.186;9.778;2023-09-30T12:16:37;41.70;48.50
19552;DHT22;9921;47.186;9.778;2023-09-30T12:19:05;41.80;48.70
19552;DHT22;9921;47.186;9.778;2023-09-30T12:21:33;42.00;48.70
19552;DHT22;9921;47.186;9.778;2023-09-30T12:24:02;42.10;48.50
19552;DHT22;9921;47.186;9.778;2023-09-30T12:26:30;42.10;48.50
19552;DHT22;9921;47.186;9.778;2023-09-30T12:28:57;42.20;48.90
19552;DHT22;9921;47.186;9.778;2023-09-30T12:31:24;42.10;48.60
19552;DHT22;9921;47.186;9.778;2023-09-30T12:33:51;42.20;49.10
19552;DHT22;9921;47.186;9.778;2023-09-30T12:36:19;42.10;48.80
19552;DHT22;9921;47.186;9.778;2023-09-30T12:38:47;42.20;48.80
19552;DHT22;9921;47.186;9.778;2023-09-30T12:41:14;42.40;48.50
19552;DHT22;9921;47.186;9.778;2023-09-30T12:43:41;42.40;48.40
19552;DHT22;9921;47.186;9.778;2023-09-30T12:46:08;41.90;48.30
19552;DHT22;9921;47.186;9.778;2023-09-30T12:48:35;41.60;48.50
19552;DHT22;9921;47.186;9.778;2023-09-30T12:51:04;41.20;49.20
19552;DHT22;9921;47.186;9.778;2023-09-30T12:53:32;40.70;49.30
19552;DHT22;9921;47.186;9.778;2023-09-30T12:56:00;40.30;50.00
19552;DHT22;9921;47.186;9.778;2023-09-30T12:58:27;39.90;50.00
19552;DHT22;9921;47.186;9.778;2023-09-30T13:00:54;39.40;50.10
19552;DHT22;9921;47.186;9.778;2023-09-30T13:03:21;39.00;51.60
19552;DHT22;9921;47.186;9.778;2023-09-30T13:05:48;38.50;51.40
19552;DHT22;9921;47.186;9.778;2023-09-30T13:08:16;37.50;52.20
19552;DHT22;9921;47.186;9.778;2023-09-30T13:10:43;37.00;53.80
19552;DHT22;9921;47.186;9.778;2023-09-30T13:13:12;37.20;54.50
19552;DHT22;9921;47.186;9.778;2023-09-30T13:15:39;37.80;53.60
19552;DHT22;9921;47.186;9.778;2023-09-30T13:18:07;38.40;53.10
19552;DHT22;9921;47.186;9.778;2023-09-30T13:20:33;39.00;52.20
19552;DHT22;9921;47.186;9.778;2023-09-30T13:23:00;39.40;51.60
19552;DHT22;9921;47.186;9.778;2023-09-30T13:25:28;39.70;51.30
19552;DHT22;9921;47.186;9.778;2023-09-30T13:27:55;39.70;51.50
19552;DHT22;9921;47.186;9.778;2023-09-30T13:30:23;40.00;51.00
19552;DHT22;9921;47.186;9.778;2023-09-30T13:32:50;40.20;50.30
19552;DHT22;9921;47.186;9.778;2023-09-30T13:35:17;40.20;49.70
19552;DHT22;9921;47.186;9.778;2023-09-30T13:37:44;40.10;50.00
19552;DHT22;9921;47.186;9.778;2023-09-30T13:40:12;40.10;50.00
19552;DHT22;9921;47.186;9.778;2023-09-30T13:42:39;40.10;50.00
19552;DHT22;9921;47.186;9.778;2023-09-30T13:45:08;40.00;50.00
19552;DHT22;9921;47.186;9.778;2023-09-30T13:47:40;40.10;49.90
19552;DHT22;9921;47.186;9.778;2023-09-30T13:50:08;40.20;49.90
19552;DHT22;9921;47.186;9.778;2023-09-30T13:52:35;40.10;49.40
19552;DHT22;9921;47.186;9.778;2023-09-30T13:55:03;39.90;50.10
19552;DHT22;9921;47.186;9.778;2023-09-30T13:57:30;39.30;50.10
19552;DHT22;9921;47.186;9.778;2023-09-30T13:59:57;38.30;50.60
19552;DHT22;9921;47.186;9.778;2023-09-30T14:02:24;36.80;51.70
19552;DHT22;9921;47.186;9.778;2023-09-30T14:04:53;35.50;53.90
19552;DHT22;9921;47.186;9.778;2023-09-30T14:07:20;34.20;56.00
19552;DHT22;9921;47.186;9.778;2023-09-30T14:09:47;33.50;57.50
19552;DHT22;9921;47.186;9.778;2023-09-30T14:12:14;32.80;58.40
19552;DHT22;9921;47.186;9.778;2023-09-30T14:14:41;32.20;59.40
19552;DHT22;9921;47.186;9.778;2023-09-30T14:17:07;31.50;61.20
19552;DHT22;9921;47.186;9.778;2023-09-30T14:19:36;31.00;62.80
19552;DHT22;9921;47.186;9.778;2023-09-30T14:22:05;30.60;63.40
19552;DHT22;9921;47.186;9.778;2023-09-30T14:24:34;30.10;64.90
19552;DHT22;9921;47.186;9.778;2023-09-30T14:27:01;29.60;66.10
19552;DHT22;9921;47.186;9.778;2023-09-30T14:29:28;29.50;67.50
19552;DHT22;9921;47.186;9.778;2023-09-30T14:31:55;29.60;67.50
19552;DHT22;9921;47.186;9.778;2023-09-30T14:34:23;29.70;66.30
19552;DHT22;9921;47.186;9.778;2023-09-30T14:36:50;29.60;66.60
19552;DHT22;9921;47.186;9.778;2023-09-30T14:39:18;29.40;67.40
19552;DHT22;9921;47.186;9.778;2023-09-30T14:41:46;29.30;67.70
19552;DHT22;9921;47.186;9.778;2023-09-30T14:44:13;29.20;68.50
19552;DHT22;9921;47.186;9.778;2023-09-30T14:46:40;29.20;69.30
19552;DHT22;9921;47.186;9.778;2023-09-30T14:49:06;29.00;69.40
19552;DHT22;9921;47.186;9.778;2023-09-30T14:51:34;28.80;69.80
19552;DHT22;9921;47.186;9.778;2023-09-30T14:54:02;28.60;69.60
19552;DHT22;9921;47.186;9.778;2023-09-30T14:56:31;28.50;70.90
19552;DHT22;9921;47.186;9.778;2023-09-30T14:58:58;28.60;71.50
19552;DHT22;9921;47.186;9.778;2023-09-30T15:01:25;28.90;71.50
19552;DHT22;9921;47.186;9.778;2023-09-30T15:03:52;29.00;70.10
19552;DHT22;9921;47.186;9.778;2023-09-30T15:06:19;29.00;70.00
19552;DHT22;9921;47.186;9.778;2023-09-30T15:08:51;29.00;70.40
19552;DHT22;9921;47.186;9.778;2023-09-30T15:11:18;28.90;70.60
19552;DHT22;9921;47.186;9.778;2023-09-30T15:13:47;28.80;70.90
19552;DHT22;9921;47.186;9.778;2023-09-30T15:16:18;28.70;70.50
19552;DHT22;9921;47.186;9.778;2023-09-30T15:18:48;28.40;70.60
19552;DHT22;9921;47.186;9.778;2023-09-30T15:21:16;28.10;72.30
19552;DHT22;9921;47.186;9.778;2023-09-30T15:23:43;27.80;71.90
19552;DHT22;9921;47.186;9.778;2023-09-30T15:26:10;27.50;72.90
19552;DHT22;9921;47.186;9.778;2023-09-30T15:28:37;27.30;73.50
19552;DHT22;9921;47.186;9.778;2023-09-30T15:31:05;27.00;74.90
19552;DHT22;9921;47.186;9.778;2023-09-30T15:33:33;26.70;75.40
19552;DHT22;9921;47.186;9.778;2023-09-30T15:38:34;26.30;77.30
19552;DHT22;9921;47.186;9.778;2023-09-30T15:41:01;26.10;77.90
19552;DHT22;9921;47.186;9.778;2023-09-30T15:43:29;25.90;78.30
19552;DHT22;9921;47.186;9.778;2023-09-30T15:45:58;25.70;79.10
19552;DHT22;9921;47.186;9.778;2023-09-30T15:48:27;25.50;79.70
19552;DHT22;9921;47.186;9.778;2023-09-30T15:50:54;25.40;80.20
19552;DHT22;9921;47.186;9.778;2023-09-30T15:53:20;25.30;80.90
19552;DHT22;9921;47.186;9.778;2023-09-30T15:55:47;25.10;81.70